Terminal Aerodrome Forecast
Issued by NWS

Home | Current Version | Previous Version | Text Only | Print | Product List | Glossary On
Versions: 1 2 3 4 5 6 7 8 9 10 11 12 13
000
FTUS43 KICT 240508 AAB
TAFCNU
TAF AMD
KCNU 240508Z 2405/2424 28013KT P6SM SCT015 BKN130
     FM240530 30022G30KT P6SM OVC013
     FM241800 30022G30KT P6SM OVC025
     FM242000 30022G26KT P6SM OVC035=

USA.gov is the U.S. government's official web portal to all federal, state and local government web resources and services.